Time;durP1;ratioP1;P1;durP2;ratioP2;P2;SDS_P1;SDS_P2;PMS_P1;PMS_P2;Temp;Humidity;BMP_temperature;BMP_pressure;BME280_temperature;BME280_humidity;BME280_pressure;Samples;Min_cycle;Max_cycle;Signal;HPM_P1;HPM_P2
2022/09/14 00:00:57;;;;;;;13.80;10.08;;;;;;;17.02;71.03;99275.81;1724685;83;21761;-78
2022/09/14 00:04:09;;;;;;;11.15;8.63;;;;;;;17.00;71.02;99272.47;1710820;83;21248;-78
2022/09/14 00:07:15;;;;;;;;;;;;;;;17.09;70.63;99275.16;1697321;84;21799;-78
2022/09/14 00:10:22;;;;;;;14.75;10.32;;;;;;;16.95;71.09;99279.27;1706790;83;20278;-78
2022/09/14 00:13:28;;;;;;;22.60;12.43;;;;;;;16.97;71.12;99267.97;1709568;83;21243;-78
2022/09/14 00:16:39;;;;;;;16.90;11.85;;;;;;;17.04;70.76;99273.66;1697786;84;21216;-78
2022/09/14 00:19:45;;;;;;;17.30;11.78;;;;;;;17.15;70.50;99279.41;1698451;84;22499;-78
2022/09/14 00:22:51;;;;;;;18.35;12.40;;;;;;;17.29;69.87;99280.26;1710492;84;21799;-78
2022/09/14 00:25:57;;;;;;;18.20;12.28;;;;;;;17.30;69.81;99277.78;1710531;84;21220;-78
2022/09/14 00:29:05;;;;;;;22.70;14.10;;;;;;;17.17;70.09;99279.98;1711017;84;21235;-78
2022/09/14 00:32:26;;;;;;;18.95;13.53;;;;;;;17.21;70.05;99284.78;1710846;84;21224;-78
2022/09/14 00:35:31;;;;;;;23.85;15.38;;;;;;;17.22;69.89;99282.84;1711027;84;21800;-78
2022/09/14 00:38:38;;;;;;;20.15;13.95;;;;;;;17.26;69.76;99282.66;1711064;84;21239;-78
2022/09/14 00:41:47;;;;;;;22.22;14.15;;;;;;;17.19;69.81;99282.81;1710365;84;21232;-78
2022/09/14 00:45:00;;;;;;;18.32;12.70;;;;;;;17.18;69.68;99281.14;1711114;84;21767;-78
2022/09/14 00:48:06;;;;;;;20.30;12.63;;;;;;;17.23;69.43;99290.08;1711024;84;21259;-78
2022/09/14 00:51:12;;;;;;;23.50;14.05;;;;;;;17.15;69.40;99289.07;1710059;84;21268;-78
2022/09/14 00:54:19;;;;;;;23.75;15.63;;;;;;;16.96;69.86;99300.81;1709812;84;21224;-78
2022/09/14 00:57:25;;;;;;;25.02;13.98;;;;;;;16.97;70.04;99297.80;1710087;84;21232;-78
2022/09/14 01:00:33;;;;;;;24.27;15.98;;;;;;;16.88;70.41;99302.02;1710928;84;21201;-78
2022/09/14 01:03:40;;;;;;;25.55;15.45;;;;;;;16.96;70.06;99308.56;1710694;84;21857;-78
2022/09/14 01:06:55;;;;;;;27.55;17.77;;;;;;;16.85;70.49;99302.52;1711078;84;21192;-78
2022/09/14 01:10:24;;;;;;;18.95;13.08;;;;;;;17.08;69.90;99305.25;1711227;83;21299;-78
2022/09/14 01:13:59;;;;;;;27.27;17.12;;;;;;;17.13;69.81;99306.45;1727981;83;21219;-78
2022/09/14 01:17:34;;;;;;;24.35;14.83;;;;;;;17.06;70.05;99306.02;1728397;83;21180;-78
2022/09/14 01:21:09;;;;;;;28.17;17.67;;;;;;;17.23;69.67;99304.73;1728337;83;21199;-78
2022/09/14 01:24:36;;;;;;;23.30;16.57;;;;;;;17.27;69.71;99301.78;1727444;83;21204;-78
2022/09/14 01:27:46;;;;;;;20.70;15.13;;;;;;;17.28;69.74;99306.77;1727509;83;21239;-78
2022/09/14 01:30:51;;;;;;;16.95;11.65;;;;;;;17.20;70.14;99308.52;1728327;83;21196;-78
2022/09/14 01:34:02;;;;;;;13.55;10.50;;;;;;;17.02;70.57;99321.39;1727883;83;21232;-78
2022/09/14 01:37:24;;;;;;;14.63;10.55;;;;;;;16.95;70.51;99313.79;1728599;83;21188;-78
2022/09/14 01:40:46;;;;;;;11.40;6.60;;;;;;;16.87;71.06;99321.05;1728496;83;21758;-78
2022/09/14 01:44:04;;;;;;;7.17;5.58;;;;;;;16.59;70.97;99324.51;1727965;83;21255;-78
2022/09/14 01:47:39;;;;;;;10.85;6.53;;;;;;;16.47;70.73;99318.16;1727262;83;22564;-78
2022/09/14 01:50:59;;;;;;;8.45;5.90;;;;;;;16.39;70.80;99317.96;1664384;85;21257;-77
2022/09/14 01:54:11;;;;;;;7.25;4.62;;;;;;;16.18;71.32;99323.48;1728030;83;21227;-77
2022/09/14 01:57:31;;;;;;;7.15;4.92;;;;;;;16.14;71.57;99322.81;1728254;83;21231;-77
2022/09/14 02:00:37;;;;;;;8.07;4.30;;;;;;;15.98;71.79;99321.59;1729068;83;21263;-78
2022/09/14 02:04:00;;;;;;;6.40;4.50;;;;;;;15.89;72.00;99332.64;1728516;83;21452;-78
2022/09/14 02:07:06;;;;;;;6.62;3.80;;;;;;;15.99;71.67;99325.48;1727449;83;21234;-78
2022/09/14 02:10:14;;;;;;;10.03;4.30;;;;;;;15.84;72.01;99326.45;1728504;83;21180;-78
2022/09/14 02:13:20;;;;;;;5.92;3.65;;;;;;;15.87;71.87;99326.54;1722620;83;21219;-77
2022/09/14 02:16:25;;;;;;;6.87;3.45;;;;;;;15.85;72.00;99329.51;1723086;83;21188;-77
2022/09/14 02:19:34;;;;;;;6.33;3.45;;;;;;;15.80;72.15;99334.89;1723269;83;21180;-78
2022/09/14 02:22:41;;;;;;;11.30;3.35;;;;;;;15.74;72.30;99333.08;1723045;83;21191;-78
2022/09/14 02:25:47;;;;;;;3.90;2.67;;;;;;;15.62;72.71;99328.88;1721830;83;21204;-78
2022/09/14 02:28:55;;;;;;;4.95;3.47;;;;;;;15.87;72.12;99338.41;1722155;83;21270;-78
2022/09/14 02:32:19;;;;;;;5.28;3.02;;;;;;;16.07;71.46;99346.37;1723095;83;21184;-78
2022/09/14 02:35:49;;;;;;;5.10;2.90;;;;;;;16.02;71.45;99349.84;1700197;83;21251;-77
2022/09/14 02:39:01;;;;;;;;;;;;;;;16.15;71.02;99350.73;1724403;83;21747;-77
2022/09/14 02:42:42;;;;;;;5.05;3.35;;;;;;;16.04;71.28;99344.95;1723065;83;20644;-77
2022/09/14 02:45:53;;;;;;;5.78;3.10;;;;;;;16.09;71.00;99341.45;1701059;83;21585;-77
2022/09/14 02:49:32;;;;;;;5.45;3.25;;;;;;;16.03;71.20;99346.54;1723191;83;21184;-78
2022/09/14 02:52:43;;;;;;;7.35;3.45;;;;;;;16.05;71.05;99348.00;1721832;83;21192;-77
2022/09/14 02:55:55;;;;;;;8.38;4.12;;;;;;;16.13;70.98;99350.10;1721964;83;21224;-78
2022/09/14 02:59:01;;;;;;;6.33;3.77;;;;;;;16.05;71.26;99357.66;1722263;83;21223;-78
2022/09/14 03:02:07;;;;;;;6.17;4.17;;;;;;;16.24;70.80;99352.07;1723166;83;21230;-78
2022/09/14 03:05:13;;;;;;;8.70;3.35;;;;;;;15.98;71.66;99359.66;1722428;83;21263;-78
2022/09/14 03:08:19;;;;;;;5.50;3.45;;;;;;;16.02;71.76;99357.27;1723071;83;21212;-78
2022/09/14 03:11:25;;;;;;;5.60;3.40;;;;;;;15.96;72.03;99357.69;1723014;83;21188;-78
2022/09/14 03:14:30;;;;;;;6.37;3.22;;;;;;;15.97;71.81;99360.73;1723928;83;21263;-78
2022/09/14 03:17:37;;;;;;;5.42;3.50;;;;;;;16.06;71.67;99363.47;1723538;83;21195;-78
2022/09/14 03:20:44;;;;;;;6.75;3.10;;;;;;;16.16;71.36;99364.81;1724856;83;21200;-78
2022/09/14 03:23:54;;;;;;;5.87;3.20;;;;;;;16.15;71.33;99365.90;1724910;83;21682;-78
2022/09/14 03:27:00;;;;;;;5.75;3.60;;;;;;;16.22;71.27;99368.00;1724691;83;21302;-78
2022/09/14 03:30:07;;;;;;;6.33;3.20;;;;;;;16.28;71.25;99375.36;1757564;81;21215;-78
2022/09/14 03:33:14;;;;;;;5.20;3.75;;;;;;;16.55;70.20;99378.51;1757961;81;21230;-78
2022/09/14 03:36:24;;;;;;;6.30;3.40;;;;;;;16.54;70.53;99383.20;1756720;81;21782;-78
2022/09/14 03:39:29;;;;;;;5.70;4.20;;;;;;;16.60;70.34;99376.71;1751435;81;21173;-78
2022/09/14 03:42:34;;;;;;;7.30;3.95;;;;;;;16.56;70.58;99382.95;1727457;83;21203;-78
2022/09/14 03:45:40;;;;;;;15.23;5.45;;;;;;;16.55;70.70;99383.48;1725908;83;21274;-78
2022/09/14 03:48:47;;;;;;;13.83;5.30;;;;;;;16.54;70.84;99387.34;1748328;81;21186;-78
2022/09/14 03:51:54;;;;;;;9.38;6.03;;;;;;;16.58;70.83;99387.16;1750730;82;21210;-78
2022/09/14 03:54:59;;;;;;;8.48;5.92;;;;;;;16.63;70.73;99391.14;1751199;81;21221;-78
2022/09/14 03:58:05;;;;;;;14.55;6.55;;;;;;;16.73;70.19;99384.52;1725950;83;21207;-78
2022/09/14 04:01:13;;;;;;;9.90;6.15;;;;;;;16.66;70.33;99390.67;1756462;80;21177;-78
2022/09/14 04:04:20;;;;;;;16.65;8.10;;;;;;;16.78;70.13;99397.06;1762941;81;21236;-78
2022/09/14 04:07:26;;;;;;;9.13;5.80;;;;;;;16.84;69.73;99404.38;1727815;83;21180;-78
2022/09/14 04:10:33;;;;;;;9.83;5.75;;;;;;;16.75;69.40;99405.81;1737231;80;21148;-78
2022/09/14 04:13:38;;;;;;;7.00;4.60;;;;;;;16.65;69.34;99409.67;1780383;80;21172;-80
2022/09/14 04:16:45;;;;;;;6.25;4.20;;;;;;;16.63;69.22;99415.98;1773082;81;21251;-78
2022/09/14 04:19:51;;;;;;;6.40;4.05;;;;;;;16.76;68.53;99417.18;1773972;81;21707;-79
2022/09/14 04:22:57;;;;;;;7.08;4.83;;;;;;;16.73;68.45;99415.72;1772691;81;21219;-78
2022/09/14 04:26:03;;;;;;;7.95;5.00;;;;;;;16.70;68.49;99416.19;1763958;81;21324;-79
2022/09/14 04:29:10;;;;;;;10.40;4.87;;;;;;;16.94;67.92;99421.22;1747654;82;21172;-79
2022/09/14 04:32:15;;;;;;;7.90;4.62;;;;;;;16.96;67.95;99429.26;1747347;82;21697;-79
2022/09/14 04:35:21;;;;;;;8.60;4.28;;;;;;;16.96;67.61;99437.00;1742686;82;21206;-78
2022/09/14 04:38:26;;;;;;;8.83;4.87;;;;;;;17.03;67.48;99430.84;1743374;82;21202;-79
2022/09/14 04:41:31;;;;;;;5.53;3.90;;;;;;;17.03;67.49;99434.98;1744559;82;21232;-79
2022/09/14 04:44:38;;;;;;;4.62;3.20;;;;;;;17.10;67.23;99438.45;1745593;82;21790;-79
2022/09/14 04:47:43;;;;;;;7.90;4.67;;;;;;;17.21;66.83;99444.21;1747194;82;21746;-79
2022/09/14 04:50:49;;;;;;;5.67;3.72;;;;;;;17.27;66.70;99451.02;1744384;82;21243;-79
2022/09/14 04:53:57;;;;;;;7.62;3.75;;;;;;;17.37;66.47;99451.80;1744727;82;21188;-79
2022/09/14 04:57:03;;;;;;;5.87;3.55;;;;;;;17.39;66.12;99450.99;1747027;82;21215;-80
2022/09/14 05:00:08;;;;;;;6.03;4.05;;;;;;;17.38;66.13;99446.02;1740758;82;21237;-80
2022/09/14 05:03:13;;;;;;;13.95;4.97;;;;;;;17.56;65.71;99448.34;1743404;82;22181;-79
2022/09/14 05:06:29;;;;;;;8.40;4.75;;;;;;;17.71;65.19;99438.16;1741815;82;21178;-79
2022/09/14 05:09:35;;;;;;;6.65;4.30;;;;;;;17.60;65.35;99448.16;1745318;80;21197;-78
2022/09/14 05:12:42;;;;;;;9.70;4.05;;;;;;;17.69;65.17;99453.62;1738647;80;22394;-78
2022/09/14 05:18:21;;;;;;;7.15;5.40;;;;;;;17.74;64.65;99448.22;1823409;76;28199;-78
2022/09/14 05:21:28;;;;;;;6.95;4.47;;;;;;;17.66;65.34;99449.11;1795067;78;21220;-79
2022/09/14 05:24:34;;;;;;;9.30;4.80;;;;;;;17.88;64.94;99448.25;1801012;78;21187;-79
2022/09/14 05:27:48;;;;;;;8.40;5.47;;;;;;;17.92;64.64;99454.11;1804971;78;21247;-79
2022/09/14 05:30:54;;;;;;;9.33;5.20;;;;;;;17.84;64.84;99459.50;1739460;81;21308;-80
2022/09/14 05:34:01;;;;;;;7.28;5.17;;;;;;;17.87;64.71;99465.06;1768123;79;21190;-80
2022/09/14 05:37:08;;;;;;;8.43;4.85;;;;;;;17.97;64.12;99458.36;1738680;81;21181;-80
2022/09/14 05:40:16;;;;;;;7.12;5.10;;;;;;;17.99;64.22;99461.73;1769221;79;21166;-79
2022/09/14 05:43:22;;;;;;;6.15;4.78;;;;;;;18.26;63.60;99450.94;1766692;80;21227;-79
2022/09/14 05:46:27;;;;;;;8.13;5.25;;;;;;;18.44;63.28;99458.17;1738900;81;21267;-79
2022/09/14 05:49:33;;;;;;;7.53;5.42;;;;;;;18.48;62.80;99459.91;1741597;80;21316;-79
2022/09/14 05:52:28;;;;;;;10.03;6.03;;;;;;;18.57;62.05;99462.57;1744298;80;21205;-78
2022/09/14 05:55:34;;;;;;;8.65;6.05;;;;;;;18.67;61.67;99459.14;1714030;80;21187;-79
2022/09/14 05:58:40;;;;;;;9.88;6.28;;;;;;;18.70;61.67;99469.77;1739502;80;21202;-79
2022/09/14 06:01:46;;;;;;;10.20;5.37;;;;;;;18.64;61.28;99469.64;1748642;80;21204;-79
2022/09/14 06:04:53;;;;;;;9.83;7.22;;;;;;;18.69;61.38;99473.09;1750513;80;21269;-79
2022/09/14 06:08:01;;;;;;;9.43;7.50;;;;;;;18.59;61.54;99477.03;1747998;80;21192;-79
2022/09/14 06:11:19;;;;;;;10.98;6.83;;;;;;;18.45;61.71;99476.49;1743232;79;21196;-80
2022/09/14 06:14:25;;;;;;;9.35;6.87;;;;;;;18.46;61.59;99485.09;1742820;80;21181;-79
2022/09/14 06:17:31;;;;;;;10.43;7.60;;;;;;;18.64;61.12;99492.34;1737944;80;21205;-80
2022/09/14 06:20:36;;;;;;;7.08;5.97;;;;;;;18.86;60.62;99498.02;1731688;81;21295;-79
2022/09/14 06:23:41;;;;;;;12.05;6.95;;;;;;;18.78;60.20;99497.06;1722349;82;21627;-79
2022/09/14 06:26:47;;;;;;;11.78;7.58;;;;;;;18.97;59.92;99495.73;1728651;80;22135;-79
2022/09/14 06:29:53;;;;;;;12.93;7.33;;;;;;;19.09;59.60;99502.02;1786572;78;21201;-78
2022/09/14 06:32:58;;;;;;;8.60;6.80;;;;;;;18.98;59.92;99497.41;1770802;78;21278;-78
2022/09/14 06:36:11;;;;;;;11.75;7.67;;;;;;;19.15;59.03;99507.97;1789106;78;21197;-79
2022/09/14 06:39:09;;;;;;;12.20;7.33;;;;;;;19.22;58.94;99501.41;1779741;78;21188;-79
2022/09/14 06:42:16;;;;;;;9.63;6.43;;;;;;;19.42;58.81;99510.04;1728759;81;21163;-79
2022/09/14 06:45:21;;;;;;;10.05;8.05;;;;;;;19.37;58.67;99504.41;1783412;78;21163;-78
2022/09/14 06:48:28;;;;;;;9.13;7.10;;;;;;;19.31;58.26;99504.05;1784782;78;21338;-79
2022/09/14 06:51:40;;;;;;;12.10;7.58;;;;;;;19.32;58.37;99510.72;1786118;78;22448;-80
2022/09/14 06:54:46;;;;;;;9.78;7.03;;;;;;;19.50;57.65;99507.39;1785828;78;21197;-80
2022/09/14 06:57:54;;;;;;;11.90;7.55;;;;;;;19.53;56.86;99514.67;1785214;78;21265;-79
2022/09/14 07:01:00;;;;;;;16.27;7.58;;;;;;;19.59;56.56;99516.41;1785687;78;21784;-80
2022/09/14 07:04:06;;;;;;;12.40;7.83;;;;;;;19.43;57.33;99522.80;1794539;78;21211;-80
2022/09/14 07:07:13;;;;;;;18.48;7.17;;;;;;;19.47;57.09;99522.59;1777370;79;21186;-79
2022/09/14 07:10:37;;;;;;;14.70;6.28;;;;;;;19.50;56.99;99522.65;1796802;78;21231;-81
2022/09/14 07:13:44;;;;;;;18.70;5.70;;;;;;;19.44;56.81;99531.44;1786380;78;21175;-80
2022/09/14 07:16:49;;;;;;;10.08;6.28;;;;;;;19.52;55.75;99533.77;1793824;78;21199;-80
2022/09/14 07:19:35;;;;;;;11.03;6.25;;;;;;;19.44;55.87;99536.98;1797075;78;21171;-80
2022/09/14 07:22:41;;;;;;;11.78;7.33;;;;;;;19.61;55.62;99537.82;1799313;77;21165;-80
2022/09/14 07:25:46;;;;;;;13.80;7.17;;;;;;;19.81;55.40;99533.14;1800260;77;21228;-80
2022/09/14 07:28:55;;;;;;;18.70;5.95;;;;;;;19.85;55.64;99527.34;1804118;77;21184;-80
2022/09/14 07:32:02;;;;;;;10.75;6.08;;;;;;;19.91;54.57;99534.67;1796383;78;21152;-79
2022/09/14 07:35:07;;;;;;;9.25;5.60;;;;;;;20.09;54.06;99533.53;1789877;77;21807;-80
2022/09/14 07:38:16;;;;;;;8.98;5.87;;;;;;;20.06;53.97;99531.81;1790966;78;21225;-79
2022/09/14 07:41:22;;;;;;;15.25;5.67;;;;;;;20.26;53.83;99528.45;1795693;78;21149;-79
2022/09/14 07:44:28;;;;;;;13.95;5.37;;;;;;;20.46;53.59;99536.18;1786703;77;21223;-79
2022/09/14 07:47:34;;;;;;;7.50;4.85;;;;;;;20.44;53.08;99535.06;1787361;78;21204;-79
2022/09/14 07:50:40;;;;;;;8.75;4.70;;;;;;;20.62;52.26;99530.59;1788706;78;21258;-79
2022/09/14 07:53:45;;;;;;;9.88;5.37;;;;;;;20.52;52.47;99536.03;1793698;78;21248;-78
2022/09/14 07:56:36;;;;;;;8.85;5.20;;;;;;;20.72;52.33;99533.19;1784712;78;21160;-79
2022/09/14 07:59:22;;;;;;;8.35;5.70;;;;;;;20.66;51.54;99530.91;1792565;77;21169;-79
2022/09/14 08:02:22;;;;;;;14.00;4.70;;;;;;;20.67;51.71;99537.58;1786523;77;21164;-77
2022/09/14 08:05:29;;;;;;;16.30;6.05;;;;;;;20.67;52.12;99537.58;1790462;77;21234;-80
2022/09/14 08:08:29;;;;;;;7.05;4.97;;;;;;;20.73;51.96;99537.64;1794614;79;21181;-78
2022/09/14 08:11:37;;;;;;;8.18;5.30;;;;;;;20.84;51.24;99542.19;1788626;78;21193;-78
2022/09/14 08:14:43;;;;;;;10.23;6.50;;;;;;;20.97;50.59;99538.98;1791933;78;21729;-80
2022/09/14 08:17:49;;;;;;;9.30;6.17;;;;;;;21.00;50.81;99534.30;1777817;79;21175;-79
2022/09/14 08:20:57;;;;;;;10.00;6.17;;;;;;;20.78;51.24;99530.74;1793120;78;21191;-79
2022/09/14 08:24:05;;;;;;;10.58;6.95;;;;;;;20.91;51.68;99533.11;1803324;78;22143;-79
2022/09/14 08:27:10;;;;;;;13.72;6.37;;;;;;;20.92;52.21;99519.48;1789785;79;21176;-80
2022/09/14 08:30:16;;;;;;;9.95;6.17;;;;;;;21.14;51.81;99524.42;1811261;78;21503;-80
2022/09/14 08:33:22;;;;;;;10.15;7.45;;;;;;;21.24;51.25;99533.41;1797936;79;21252;-80
2022/09/14 08:36:30;;;;;;;12.45;7.67;;;;;;;21.28;51.39;99539.28;1799244;78;21203;-79
2022/09/14 08:39:36;;;;;;;11.65;6.75;;;;;;;21.58;50.17;99540.93;1791701;78;21185;-78
2022/09/14 08:42:43;;;;;;;10.48;6.67;;;;;;;21.59;50.17;99541.20;1800624;78;21160;-79
2022/09/14 08:45:49;;;;;;;11.30;6.37;;;;;;;21.71;49.64;99546.59;1767838;77;21199;-79
2022/09/14 08:48:54;;;;;;;14.50;6.55;;;;;;;21.74;50.02;99545.20;1737258;81;21685;-78
2022/09/14 08:51:59;;;;;;;12.18;6.62;;;;;;;21.80;49.21;99544.16;1759693;80;21316;-79
2022/09/14 08:55:07;;;;;;;7.80;6.25;;;;;;;21.84;49.62;99546.69;1738962;80;21221;-79
2022/09/14 08:58:19;;;;;;;8.35;6.37;;;;;;;21.85;49.78;99542.23;1738352;80;21200;-81
2022/09/14 09:01:50;;;;;;;11.35;6.75;;;;;;;22.12;49.59;99539.36;1729218;80;21972;-80
2022/09/14 09:05:31;;;;;;;12.85;6.65;;;;;;;22.39;48.34;99538.34;1736262;81;21233;-78
2022/09/14 09:08:58;;;;;;;9.67;6.60;;;;;;;22.50;48.29;99542.03;1741193;80;21543;-79
2022/09/14 09:12:06;;;;;;;10.98;5.92;;;;;;;22.58;48.28;99545.09;1734761;80;22440;-79
2022/09/14 09:15:27;;;;;;;9.50;6.35;;;;;;;22.44;47.96;99545.33;1740889;80;21183;-79
2022/09/14 09:19:01;;;;;;;8.95;6.28;;;;;;;22.29;47.85;99556.41;1733019;80;21204;-80
2022/09/14 09:22:06;;;;;;;8.93;5.25;;;;;;;22.24;48.01;99553.05;1714839;81;21221;-80
2022/09/14 09:25:13;;;;;;;7.28;6.08;;;;;;;22.35;47.22;99554.79;1714278;81;21190;-79
2022/09/14 09:28:18;;;;;;;8.40;5.83;;;;;;;22.33;47.91;99555.60;1742887;81;21246;-79
2022/09/14 09:31:24;;;;;;;8.98;5.72;;;;;;;22.37;48.45;99560.08;1737045;80;21771;-79
2022/09/14 09:34:35;;;;;;;8.03;5.47;;;;;;;22.43;48.29;99555.64;1722798;81;21171;-79
2022/09/14 09:37:51;;;;;;;12.80;5.83;;;;;;;22.52;48.19;99553.73;1691002;81;21181;-81
2022/09/14 09:41:01;;;;;;;11.95;5.50;;;;;;;22.52;47.89;99555.95;1687096;82;21584;-80
2022/09/14 09:44:09;;;;;;;11.83;4.70;;;;;;;22.58;47.72;99550.67;1727633;82;21263;-78
2022/09/14 09:47:16;;;;;;;6.42;4.67;;;;;;;22.73;47.59;99554.65;1748461;81;21169;-80
2022/09/14 09:50:25;;;;;;;8.00;4.85;;;;;;;22.97;46.80;99551.66;1732503;82;21223;-80
2022/09/14 09:53:30;;;;;;;17.85;4.87;;;;;;;23.10;46.34;99552.52;1724075;81;21256;-80
2022/09/14 09:56:45;;;;;;;8.00;4.83;;;;;;;23.21;46.13;99546.39;1736866;80;21252;-79
2022/09/14 09:59:53;;;;;;;5.58;3.95;;;;;;;23.19;46.03;99547.20;1722804;82;21819;-79
2022/09/14 10:03:02;;;;;;;6.95;3.62;;;;;;;23.12;46.18;99553.07;1688948;83;21211;-78
2022/09/14 10:06:15;;;;;;;5.70;3.90;;;;;;;23.20;45.81;99558.11;1719224;82;21224;-79
2022/09/14 10:09:26;;;;;;;5.75;3.67;;;;;;;22.89;46.08;99558.61;1733665;81;21360;-79
2022/09/14 10:12:31;;;;;;;5.67;3.42;;;;;;;22.83;46.00;99563.03;1714835;83;21234;-79
2022/09/14 10:15:41;;;;;;;4.75;3.15;;;;;;;22.74;45.62;99554.92;1707592;83;21209;-80
2022/09/14 10:18:58;;;;;;;6.12;3.83;;;;;;;22.68;45.19;99557.70;1728826;82;21256;-80
2022/09/14 10:22:22;;;;;;;9.03;3.70;;;;;;;22.56;45.56;99564.05;1749179;81;22374;-80
2022/09/14 10:25:31;;;;;;;3.70;3.30;;;;;;;22.41;45.88;99563.45;1796428;78;21172;-81
2022/09/14 10:28:41;;;;;;;4.87;3.65;;;;;;;22.36;45.98;99558.41;1783196;78;21558;-81
2022/09/14 10:31:48;;;;;;;3.83;3.05;;;;;;;22.23;46.50;99555.56;1786759;78;21193;-80
2022/09/14 10:34:52;;;;;;;4.17;3.33;;;;;;;22.19;46.13;99553.86;1782086;79;21193;-81
2022/09/14 10:38:15;;;;;;;5.75;3.67;;;;;;;22.24;45.59;99549.43;1785215;78;21197;-80
2022/09/14 10:41:47;;;;;;;4.10;3.45;;;;;;;22.39;45.09;99550.88;1798637;78;21736;-78
2022/09/14 10:44:57;;;;;;;3.20;2.90;;;;;;;22.24;45.59;99550.83;1787398;78;21181;-78
2022/09/14 10:48:16;;;;;;;5.10;3.37;;;;;;;22.45;46.08;99548.42;1796943;78;21235;-78
2022/09/14 10:51:50;;;;;;;3.85;3.08;;;;;;;22.49;46.05;99548.16;1800854;78;21729;-81
2022/09/14 10:55:38;;;;;;;3.55;3.02;;;;;;;22.57;45.33;99556.53;1731319;82;21746;-78
2022/09/14 10:59:05;;;;;;;4.67;2.85;;;;;;;22.80;44.54;99549.63;1788068;78;21593;-79
2022/09/14 11:02:38;;;;;;;3.67;2.77;;;;;;;22.72;44.83;99546.81;1774216;79;21203;-79
2022/09/14 11:05:48;;;;;;;6.67;3.10;;;;;;;22.90;44.50;99541.31;1771379;79;21255;-79
2022/09/14 11:09:00;;;;;;;8.13;2.37;;;;;;;23.00;44.44;99544.11;1775926;79;21191;-79
2022/09/14 11:12:25;;;;;;;3.45;2.85;;;;;;;22.88;43.64;99532.38;1802729;78;21747;-79
2022/09/14 11:16:09;;;;;;;7.10;3.20;;;;;;;22.91;44.20;99531.83;1822345;78;21162;-79
2022/09/14 11:19:22;;;;;;;4.33;3.37;;;;;;;23.02;43.46;99522.38;1789962;78;21227;-78
2022/09/14 11:23:25;;;;;;;3.77;3.02;;;;;;;23.09;43.91;99522.94;1781338;78;21211;-79
2022/09/14 11:26:47;;;;;;;9.03;3.58;;;;;;;23.13;43.18;99524.05;1787301;78;21507;-79
2022/09/14 11:29:59;;;;;;;4.80;3.67;;;;;;;22.99;42.57;99529.06;1777739;78;21167;-78
2022/09/14 11:33:19;;;;;;;5.08;3.58;;;;;;;22.84;42.70;99527.06;1793460;78;21169;-78
2022/09/14 11:36:36;;;;;;;3.90;3.45;;;;;;;23.00;42.54;99527.38;1787224;79;21253;-79
2022/09/14 11:40:17;;;;;;;3.85;2.95;;;;;;;23.09;42.54;99529.91;1788198;79;22436;-79
2022/09/14 11:43:41;;;;;;;4.95;3.60;;;;;;;23.20;42.58;99529.37;1787269;78;21195;-79
2022/09/14 11:46:53;;;;;;;7.20;3.52;;;;;;;23.11;42.23;99532.44;1783746;79;21286;-79
2022/09/14 11:50:14;;;;;;;5.53;3.55;;;;;;;23.02;41.28;99529.36;1769909;78;22548;-79
2022/09/14 11:53:22;;;;;;;10.88;3.70;;;;;;;22.87;41.39;99529.31;1802038;79;21160;-80
2022/09/14 11:56:40;;;;;;;4.92;3.98;;;;;;;23.02;40.21;99524.34;1792669;79;21171;-79
2022/09/14 11:59:53;;;;;;;4.22;3.58;;;;;;;22.98;40.74;99529.63;1791208;78;21735;-79
2022/09/14 12:03:27;;;;;;;7.47;3.62;;;;;;;23.04;40.53;99532.69;1791877;78;21179;-80
2022/09/14 12:06:46;;;;;;;3.67;2.98;;;;;;;22.92;40.47;99531.58;1797310;78;21174;-80
2022/09/14 12:09:52;;;;;;;5.95;2.83;;;;;;;23.07;39.73;99530.75;1787145;78;21185;-78
2022/09/14 12:13:00;;;;;;;2.90;2.65;;;;;;;22.97;39.13;99526.56;1778653;79;21248;-78
2022/09/14 12:16:14;;;;;;;4.85;2.50;;;;;;;23.11;38.68;99525.47;1787932;79;21145;-78
2022/09/14 12:19:23;;;;;;;3.92;3.27;;;;;;;23.02;38.19;99514.02;1753123;80;21222;-79
2022/09/14 12:22:44;;;;;;;5.22;2.80;;;;;;;22.99;39.00;99511.77;1735641;82;21216;-79
2022/09/14 12:26:18;;;;;;;6.87;3.20;;;;;;;23.19;38.96;99517.35;1736199;80;21196;-79
2022/09/14 12:29:39;;;;;;;3.02;2.72;;;;;;;23.43;38.83;99512.08;1725391;82;21169;-79
2022/09/14 12:32:51;;;;;;;2.75;2.52;;;;;;;23.42;38.35;99503.97;1730900;80;21188;-80
2022/09/14 12:35:56;;;;;;;4.15;2.60;;;;;;;23.47;37.95;99513.72;1729745;80;21188;-80
2022/09/14 12:39:06;;;;;;;4.80;2.75;;;;;;;23.51;37.56;99510.66;1730614;80;21184;-80
2022/09/14 12:42:35;;;;;;;2.80;2.52;;;;;;;23.69;37.15;99505.91;1733844;82;21244;-80
2022/09/14 12:46:07;;;;;;;5.15;2.25;;;;;;;23.78;37.09;99508.97;1739088;82;21169;-79
2022/09/14 12:49:33;;;;;;;2.67;2.22;;;;;;;23.92;37.06;99512.84;1713726;82;21166;-80
2022/09/14 12:52:56;;;;;;;4.12;2.37;;;;;;;23.92;36.91;99505.03;1732463;80;21179;-80
2022/09/14 12:56:08;;;;;;;3.60;2.15;;;;;;;23.94;36.62;99508.36;1735425;80;21200;-80
2022/09/14 12:59:20;;;;;;;4.33;2.70;;;;;;;23.79;37.10;99507.02;1712826;83;21232;-79
2022/09/14 13:02:53;;;;;;;6.60;2.10;;;;;;;23.88;36.55;99508.11;1713048;83;21579;-79
2022/09/14 13:05:59;;;;;;;4.45;1.95;;;;;;;23.95;36.96;99505.87;1711996;83;21248;-80
2022/09/14 13:09:05;;;;;;;2.72;1.82;;;;;;;24.06;36.57;99505.27;1769244;80;21208;-80
2022/09/14 13:12:13;;;;;;;2.33;1.77;;;;;;;23.93;36.93;99504.73;1774164;80;21485;-80
2022/09/14 13:15:30;;;;;;;2.17;1.70;;;;;;;24.00;37.58;99495.24;1756851;81;21253;-80
2022/09/14 13:18:44;;;;;;;8.18;2.10;;;;;;;23.85;37.50;99501.69;1777448;80;21197;-80
2022/09/14 13:21:55;;;;;;;3.65;2.30;;;;;;;23.79;38.19;99495.84;1754476;81;21198;-80
2022/09/14 13:25:02;;;;;;;5.60;1.90;;;;;;;23.69;38.07;99496.14;1720717;81;21276;-78
2022/09/14 13:28:11;;;;;;;4.08;2.00;;;;;;;23.80;38.20;99501.13;1744710;82;21514;-79
2022/09/14 13:31:20;;;;;;;3.35;2.08;;;;;;;23.73;38.31;99494.19;1744900;82;21192;-79
2022/09/14 13:34:12;;;;;;;2.12;1.70;;;;;;;23.76;38.77;99497.27;1749504;80;21463;-79
2022/09/14 13:37:21;;;;;;;3.35;1.80;;;;;;;23.65;38.77;99488.62;1738577;80;21209;-79
2022/09/14 13:40:32;;;;;;;6.75;2.22;;;;;;;23.67;38.94;99494.20;1754915;80;22479;-78
2022/09/14 13:43:37;;;;;;;2.80;1.72;;;;;;;23.77;38.87;99484.97;1755353;81;21238;-78
2022/09/14 13:46:43;;;;;;;3.45;1.77;;;;;;;23.76;38.82;99493.61;1740743;82;21708;-78
2022/09/14 13:49:50;;;;;;;7.83;1.95;;;;;;;23.74;39.09;99488.88;1748943;82;21261;-78
2022/09/14 13:52:57;;;;;;;2.00;1.80;;;;;;;23.69;39.44;99484.98;1746795;82;21224;-79
2022/09/14 13:56:02;;;;;;;4.58;2.27;;;;;;;23.70;39.69;99484.41;1735140;82;21257;-78
2022/09/14 13:59:24;;;;;;;8.60;2.17;;;;;;;23.83;39.41;99484.39;1733222;82;21226;-79
2022/09/14 14:02:23;;;;;;;4.20;2.02;;;;;;;23.56;40.23;99479.94;1731246;82;21485;-78
2022/09/14 14:05:28;;;;;;;5.53;2.33;;;;;;;23.76;40.07;99479.12;1732581;82;21231;-79
2022/09/14 14:08:26;;;;;;;8.48;1.92;;;;;;;23.73;40.14;99489.44;1725961;83;21351;-79
2022/09/14 14:11:19;;;;;;;4.95;1.77;;;;;;;23.58;40.04;99483.30;1721592;81;21217;-79
2022/09/14 14:14:21;;;;;;;5.30;2.17;;;;;;;23.65;40.06;99495.03;1736935;81;21169;-79
2022/09/14 14:17:32;;;;;;;3.02;2.12;;;;;;;23.64;40.08;99489.17;1726514;83;21191;-78
2022/09/14 14:20:42;;;;;;;4.87;1.92;;;;;;;23.71;39.78;99485.55;1698197;84;22459;-79
2022/09/14 14:23:46;;;;;;;;;;;;;;;23.61;39.39;99482.72;1729002;83;21230;-79
2022/09/14 14:27:02;;;;;;;2.60;2.10;;;;;;;23.60;39.51;99485.24;1776876;80;20670;-79
2022/09/14 14:30:10;;;;;;;5.55;2.00;;;;;;;23.52;39.37;99477.44;1822022;78;21236;-79
2022/09/14 14:33:21;;;;;;;1.90;1.70;;;;;;;23.38;39.50;99479.99;1748623;82;21202;-78
2022/09/14 14:36:25;;;;;;;;;;;;;;;23.49;39.52;99480.80;1753030;82;21202;-78
2022/09/14 14:39:31;;;;;;;9.08;2.52;;;;;;;23.29;39.77;99478.88;1733768;81;20229;-79
2022/09/14 14:42:38;;;;;;;4.08;2.20;;;;;;;23.21;39.78;99483.06;1724778;83;21184;-79
2022/09/14 14:45:43;;;;;;;4.60;2.10;;;;;;;23.15;39.78;99483.36;1726664;83;21217;-78
2022/09/14 14:48:50;;;;;;;4.92;2.27;;;;;;;23.02;39.74;99484.73;1726778;83;21192;-78
2022/09/14 14:51:56;;;;;;;6.42;2.00;;;;;;;23.11;39.82;99482.23;1753436;81;21203;-78
2022/09/14 14:55:01;;;;;;;2.55;2.08;;;;;;;23.01;39.97;99482.20;1781285;79;21211;-78
2022/09/14 14:58:09;;;;;;;5.92;1.95;;;;;;;23.01;40.01;99479.41;1767792;81;21238;-78